^^

Meteo Aereoporti Centro-Italia

 

 
LIRZ - Perugia S.Egidio (208 m.)
Dati ricevuti: 20/01/2017 07:50
Sereno
Sereno
 Vento da N
Vento: N 19 km/h
TEMPERATURA: 2°C
Raffreddamento da Vento: -2°C
P.to di Rugiada: -1°C
Umidità: 81%
Pressione: 1028 hPa
Condizioni generali: Sereno
Visibilità: oltre 10 km
2017/01/20 06:50 LIRZ 200650Z 36010KT CAVOK 02/M01 Q1028
 
LIPY - Ancona Falconara (12 m.)
Dati ricevuti: 20/01/2017 07:50
Molto nuvoloso
Molto nuvoloso
 Vento da W
Vento: W 7 km/h
TEMPERATURA: 3°C
Raffreddamento da Vento: 1°C
P.to di Rugiada: -1°C
Umidità: 75%
Pressione: 1031 hPa
Nuvole: Molto nuvoloso
Visibilità: 10 km
Dettagli Nuvole: Molto nuvoloso 762 m
2017/01/20 06:50 LIPY 200650Z 27004KT 9999 BKN025 03/M01 Q1031
 
LIPR - Rimini Miramare (12 m.)
Dati ricevuti: 20/01/2017 08:15
Poco nuvoloso
Poco nuvoloso
 Vento da WNW
Vento: WNW 19 km/h
TEMPERATURA: 2°C
Raffreddamento da Vento: -2°C
P.to di Rugiada: -3°C
Umidità: 70%
Pressione: 1031 hPa
Nuvole: Poco nuvoloso
Visibilità: 10 km
Dettagli Nuvole: Poco nuvoloso 1219 m
2017/01/20 07:15 LIPR 200715Z 29010KT 9999 SCT040 02/M03 Q1031
 
LIRF - Roma Fiumicino (2 m.)
Dati ricevuti: 20/01/2017 08:20
Sereno
Sereno
 Vento da NE
Vento: NE 11 km/h
TEMPERATURA: 3°C
Raffreddamento da Vento: 0°C
P.to di Rugiada: -1°C
Umidità: 75%
Pressione: 1027 hPa
Condizioni generali: Sereno
Visibilità: oltre 10 km
2017/01/20 07:20 LIRF 200720Z 05006KT CAVOK 03/M01 Q1027 NOSIG
 
LIRA - Roma Ciampino (129 m.)
Dati ricevuti: 20/01/2017 08:20
Sereno
Sereno
 Vento da N
Vento: N 9 km/h
TEMPERATURA: 1°C
Raffreddamento da Vento: -2°C
P.to di Rugiada: -2°C
Umidità: 81%
Pressione: 1026 hPa
Condizioni generali: Sereno
Visibilità: oltre 10 km
2017/01/20 07:20 LIRA 200720Z 01005KT CAVOK 01/M02 Q1026
 
LIRU - Roma Urbe (17 m.)
Dati ricevuti: 20/01/2017 07:50
Poco nuvoloso
Poco nuvoloso
 Vento da direzione variabile
Vento: direzione variabile 2 km/h
TEMPERATURA: 0°C
P.to di Rugiada: -1°C
Umidità: 93%
Pressione: 1027 hPa
Nuvole: Poco nuvoloso
Visibilità: 8 km
2017/01/20 06:50 LIRU 200650Z VRB01KT 8000 NSC 00/M01 Q1027
 
LIVF - Frontone (570 m.)
Dati ricevuti: 20/01/2017 03:55
Dati non aggiornati
Molto nuvoloso
Molto nuvoloso
 Vento da W
Vento: W 11 km/h
TEMPERATURA: -1°C
Raffreddamento da Vento: -5°C
P.to di Rugiada: -4°C
Umidità: 80%
Pressione: 1028 hPa
Nuvole: Molto nuvoloso
Visibilità: 10 km
Dettagli Nuvole: Molto nuvoloso 762 m
2017/01/20 02:55 LIVF 200255Z 28006KT 9999 BKN025 M01/M04 Q1028
 
LIRQ - Firenze Peretola (40 m.)
Dati ricevuti: 20/01/2017 08:20
Sereno
Sereno
 Vento da direzione variabile
Vento: direzione variabile 7 km/h
TEMPERATURA: 4°C
Raffreddamento da Vento: 2°C
P.to di Rugiada: -4°C
Umidità: 56%
Pressione: 1030 hPa
Condizioni generali: Sereno
Visibilità: oltre 10 km
2017/01/20 07:20 LIRQ 200720Z VRB04KT CAVOK 04/M04 Q1030
 
LIBP - Pescara (10 m.)
Dati ricevuti: 20/01/2017 07:50
Molto nuvoloso
Molto nuvoloso
 Vento da SW
Vento: SW 6 km/h
TEMPERATURA: 4°C
P.to di Rugiada: 3°C
Umidità: 93%
Pressione: 1031 hPa
Nuvole: Molto nuvoloso
Visibilità: 10 km
Dettagli Nuvole: Poco nuvoloso 610 m
Molto nuvoloso 1219 m
2017/01/20 06:50 LIBP 200650Z 23003KT 9999 4000NE SCT020 BKN040 04/03 Q1031
 
LIRV - Viterbo (300 m.)
Dati ricevuti: 20/01/2017 07:55
Sereno
Sereno
 Vento da ENE
Vento: ENE 22 km/h
TEMPERATURA: 1°C
Raffreddamento da Vento: -4°C
P.to di Rugiada: -3°C
Umidità: 75%
Pressione: 1026 hPa
Condizioni generali: Sereno
Visibilità: oltre 10 km
2017/01/20 06:55 LIRV 200655Z 06012KT CAVOK 01/M03 Q1026
 
LIQN - Rieti (389 m.)
Dati ricevuti: 20/01/2017 07:50
Sereno
Sereno
 Vento da direzione variabile
Vento: direzione variabile 2 km/h
TEMPERATURA: -4°C
P.to di Rugiada: -4°C
Umidità: 100%
Pressione: 1026 hPa
Condizioni generali: Sereno
Visibilità: oltre 10 km
2017/01/20 06:50 LIQN 200650Z VRB01KT CAVOK M04/M04 Q1026
 
LIRG - Guidonia -RM- (88 m.)
Dati ricevuti: 20/01/2017 07:55
Sereno
Sereno
 Vento da NNE
Vento: NNE 7 km/h
TEMPERATURA: -1°C
Raffreddamento da Vento: -4°C
P.to di Rugiada: -1°C
Umidità: 100%
Pressione: 1027 hPa
Condizioni generali: Sereno
Visibilità: oltre 10 km
2017/01/20 06:55 LIRG 200655Z 02004KT CAVOK M01/M01 Q1027
 
LIRK - Terminillo -RI-(1874 m.)
Dati ricevuti: 20/01/2017 07:55

 Vento da E
Vento: E 17 km/h
TEMPERATURA: -3°C
Raffreddamento da Vento: -8°C
P.to di Rugiada: -6°C
Umidità: 80%
Pressione: 1023 hPa
2017/01/20 06:55 LIRK 200655Z AUTO 10009KT //// M03/M06 Q1023
 
LIPK - Forlì (27 m.)
Dati ricevuti: 19/01/2017 17:50
Dati non aggiornati
Molto nuvoloso
Molto nuvoloso
 Vento da calm
Vento: Calma
TEMPERATURA: 4°C
P.to di Rugiada: -3°C
Umidità: 61%
Pressione: 1029 hPa
Nuvole: Molto nuvoloso
Visibilità: 10 km
Dettagli Nuvole: Molto nuvoloso 1524 m
2017/01/19 16:50 LIPK 191650Z 00000KT 9999 BKN050 04/M03 Q1029
 
LIRS - Grosseto (5 m.)
Dati ricevuti: 20/01/2017 07:55
Sereno
Sereno
 Vento da NNW
Vento: NNW 6 km/h
TEMPERATURA: 2°C
P.to di Rugiada: -2°C
Umidità: 75%
Pressione: 1028 hPa
Condizioni generali: Sereno
Visibilità: oltre 10 km
2017/01/20 06:55 LIRS 200655Z 34003KT CAVOK 02/M02 Q1028
 
LIRP - Pisa S.Giusto (2 m.)
Dati ricevuti: 20/01/2017 08:15
Sereno
Sereno
 Vento da E
Vento: E 13 km/h
TEMPERATURA: 2°C
Raffreddamento da Vento: -1°C
P.to di Rugiada: -3°C
Umidità: 70%
Pressione: 1029 hPa
Condizioni generali: Sereno
Visibilità: oltre 10 km
2017/01/20 07:15 LIRP 200715Z 10007KT CAVOK 02/M03 Q1029 NOSIG